createdAt,value
2022-10-19T00:00:43.628Z,962.29
2022-10-19T00:01:43.537Z,962.28
2022-10-19T00:02:43.517Z,962.28
2022-10-19T00:03:43.518Z,962.31
2022-10-19T00:04:43.475Z,962.28
2022-10-19T00:05:43.483Z,962.27
2022-10-19T00:06:43.445Z,962.27
2022-10-19T00:07:43.428Z,962.25
2022-10-19T00:08:43.443Z,962.24
2022-10-19T00:09:43.406Z,962.26
2022-10-19T00:10:43.410Z,962.26
2022-10-19T00:11:43.404Z,962.26
2022-10-19T00:12:43.428Z,962.29
2022-10-19T00:13:43.355Z,962.31
2022-10-19T00:14:43.327Z,962.27
2022-10-19T00:15:43.337Z,962.25
2022-10-19T00:16:43.335Z,962.24
2022-10-19T00:17:43.308Z,962.20
2022-10-19T00:18:43.329Z,962.18
2022-10-19T00:19:43.306Z,962.19
2022-10-19T00:20:43.264Z,962.14
2022-10-19T00:21:43.337Z,962.13
2022-10-19T00:22:43.258Z,962.12
2022-10-19T00:23:43.244Z,962.12
2022-10-19T00:24:43.281Z,962.13
2022-10-19T00:25:43.220Z,962.12
2022-10-19T00:26:43.183Z,962.09
2022-10-19T00:27:43.170Z,962.17
2022-10-19T00:28:43.161Z,962.14
2022-10-19T00:29:43.136Z,962.16
2022-10-19T00:30:43.236Z,962.16
2022-10-19T00:31:43.107Z,962.15
2022-10-19T00:32:43.099Z,962.15
2022-10-19T00:33:43.087Z,962.16
2022-10-19T00:34:43.090Z,962.21
2022-10-19T00:35:43.058Z,962.15
2022-10-19T00:36:43.044Z,962.15
2022-10-19T00:37:43.036Z,962.18
2022-10-19T00:38:43.013Z,962.14
2022-10-19T00:39:43.151Z,962.19
2022-10-19T00:40:42.999Z,962.17
2022-10-19T00:41:42.985Z,962.19
2022-10-19T00:42:42.961Z,962.20
2022-10-19T00:43:42.959Z,962.17
2022-10-19T00:44:42.966Z,962.18
2022-10-19T00:45:42.923Z,962.15
2022-10-19T00:46:42.930Z,962.11
2022-10-19T00:47:42.898Z,962.08
2022-10-19T00:48:42.907Z,962.08
2022-10-19T00:49:42.947Z,962.14
2022-10-19T00:50:42.860Z,962.09
2022-10-19T00:51:42.865Z,962.13
2022-10-19T00:52:42.823Z,962.14
2022-10-19T00:53:42.828Z,962.14
2022-10-19T00:54:42.799Z,962.12
2022-10-19T00:55:42.798Z,962.17
2022-10-19T00:56:42.803Z,962.14
2022-10-19T00:57:42.814Z,962.14
2022-10-19T00:58:42.791Z,962.16
2022-10-19T00:59:42.753Z,962.12
2022-10-19T01:00:42.759Z,962.15
2022-10-19T01:01:42.733Z,962.12
2022-10-19T01:02:42.736Z,962.12
2022-10-19T01:03:42.711Z,962.15
2022-10-19T01:04:42.672Z,962.16
2022-10-19T01:05:42.694Z,962.13
2022-10-19T01:06:42.714Z,962.18
2022-10-19T01:07:42.677Z,962.15
2022-10-19T01:08:42.645Z,962.13
2022-10-19T01:09:42.602Z,962.12
2022-10-19T01:10:42.588Z,962.14
2022-10-19T01:11:42.586Z,962.10
2022-10-19T01:12:42.601Z,962.10
2022-10-19T01:13:42.569Z,962.09
2022-10-19T01:14:42.529Z,962.11
2022-10-19T01:15:42.561Z,962.08
2022-10-19T01:16:42.563Z,962.07
2022-10-19T01:17:42.528Z,962.04
2022-10-19T01:18:42.488Z,962.01
2022-10-19T01:19:42.474Z,962.05
2022-10-19T01:20:42.457Z,962.01
2022-10-19T01:21:42.472Z,962.01
2022-10-19T01:22:42.468Z,962.01
2022-10-19T01:23:42.426Z,962.01
2022-10-19T01:24:42.428Z,962.01
2022-10-19T01:25:42.394Z,962.01
2022-10-19T01:26:42.399Z,961.97
2022-10-19T01:27:42.447Z,961.96
2022-10-19T01:28:42.420Z,961.99
2022-10-19T01:29:42.351Z,961.92
2022-10-19T01:30:42.358Z,961.92
2022-10-19T01:31:42.326Z,961.97
2022-10-19T01:32:42.309Z,961.92
2022-10-19T01:33:42.350Z,961.93
2022-10-19T01:34:42.284Z,961.93
2022-10-19T01:35:42.291Z,961.93
2022-10-19T01:36:42.253Z,961.94
2022-10-19T01:37:42.263Z,961.90
2022-10-19T01:38:42.269Z,961.88
2022-10-19T01:39:44.282Z,961.88
2022-10-19T01:40:42.189Z,961.88
2022-10-19T01:41:42.186Z,961.80
2022-10-19T01:42:42.242Z,961.80
2022-10-19T01:43:42.171Z,961.79
2022-10-19T01:44:42.206Z,961.80
2022-10-19T01:45:42.220Z,961.80
2022-10-19T01:46:42.174Z,961.85
2022-10-19T01:47:42.126Z,961.84
2022-10-19T01:48:42.173Z,961.84
2022-10-19T01:49:42.097Z,961.80
2022-10-19T01:50:42.106Z,961.76
2022-10-19T01:51:42.091Z,961.76
2022-10-19T01:52:42.067Z,961.73
2022-10-19T01:53:42.019Z,961.74
2022-10-19T01:54:42.007Z,961.73
2022-10-19T01:55:41.994Z,961.74
2022-10-19T01:56:41.978Z,961.77
2022-10-19T01:57:42.005Z,961.81
2022-10-19T01:58:41.959Z,961.75
2022-10-19T01:59:41.942Z,961.79
2022-10-19T02:00:41.977Z,961.82
2022-10-19T02:01:41.950Z,961.77
2022-10-19T02:02:41.918Z,961.77
2022-10-19T02:03:41.887Z,961.75
2022-10-19T02:04:41.879Z,961.73
2022-10-19T02:05:41.890Z,961.75
2022-10-19T02:06:41.845Z,961.74
2022-10-19T02:07:41.843Z,961.75
2022-10-19T02:08:41.871Z,961.77
2022-10-19T02:09:41.849Z,961.77
2022-10-19T02:10:41.809Z,961.76
2022-10-19T02:11:44.161Z,961.78
2022-10-19T02:12:41.799Z,961.75
2022-10-19T02:13:41.750Z,961.75
2022-10-19T02:14:41.767Z,961.73
2022-10-19T02:15:41.758Z,961.76
2022-10-19T02:16:41.747Z,961.71
2022-10-19T02:17:41.687Z,961.75
2022-10-19T02:18:41.696Z,961.72
2022-10-19T02:19:41.680Z,961.73
2022-10-19T02:20:41.678Z,961.72
2022-10-19T02:21:41.643Z,961.71
2022-10-19T02:22:41.658Z,961.72
2022-10-19T02:23:41.610Z,961.72
2022-10-19T02:24:41.614Z,961.72
2022-10-19T02:25:41.615Z,961.72
2022-10-19T02:26:41.586Z,961.72
2022-10-19T02:27:41.578Z,961.71
2022-10-19T02:28:41.576Z,961.70
2022-10-19T02:29:41.586Z,961.65
2022-10-19T02:30:41.538Z,961.69
2022-10-19T02:31:41.515Z,961.72
2022-10-19T02:32:41.528Z,961.68
2022-10-19T02:33:41.506Z,961.68
2022-10-19T02:34:41.477Z,961.69
2022-10-19T02:35:41.463Z,961.65
2022-10-19T02:36:41.447Z,961.63
2022-10-19T02:37:41.450Z,961.66
2022-10-19T02:38:41.418Z,961.59
2022-10-19T02:39:41.410Z,961.57
2022-10-19T02:40:41.393Z,961.61
2022-10-19T02:41:41.393Z,961.59
2022-10-19T02:42:41.390Z,961.59
2022-10-19T02:43:41.347Z,961.59
2022-10-19T02:44:41.358Z,961.60
2022-10-19T02:45:41.325Z,961.62
2022-10-19T02:47:41.321Z,961.60
2022-10-19T02:48:41.290Z,961.59
2022-10-19T02:49:48.048Z,961.57
2022-10-19T02:50:41.269Z,961.56
2022-10-19T02:51:41.301Z,961.56
2022-10-19T02:52:41.256Z,961.58
2022-10-19T02:53:41.251Z,961.59
2022-10-19T02:54:41.201Z,961.61
2022-10-19T02:56:41.208Z,961.60
2022-10-19T02:57:41.162Z,961.58
2022-10-19T02:58:41.179Z,961.57
2022-10-19T02:59:41.131Z,961.56
2022-10-19T03:00:41.229Z,961.53
2022-10-19T03:01:41.107Z,961.57
2022-10-19T03:02:41.097Z,961.56
2022-10-19T03:03:41.106Z,961.56
2022-10-19T03:04:41.100Z,961.55
2022-10-19T03:05:41.057Z,961.56
2022-10-19T03:06:41.066Z,961.58
2022-10-19T03:07:41.024Z,961.55
2022-10-19T03:08:41.035Z,961.56
2022-10-19T03:09:41.003Z,961.57
2022-10-19T03:10:40.989Z,961.57
2022-10-19T03:11:40.976Z,961.55
2022-10-19T03:12:40.964Z,961.55
2022-10-19T03:13:41.004Z,961.56
2022-10-19T03:14:40.950Z,961.55
2022-10-19T03:15:40.939Z,961.58
2022-10-19T03:16:40.910Z,961.59
2022-10-19T03:17:40.899Z,961.56
2022-10-19T03:18:40.912Z,961.58
2022-10-19T03:19:40.867Z,961.52
2022-10-19T03:20:40.867Z,961.52
2022-10-19T03:21:40.836Z,961.56
2022-10-19T03:22:40.882Z,961.56
2022-10-19T03:23:40.852Z,961.54
2022-10-19T03:24:40.804Z,961.51
2022-10-19T03:25:40.793Z,961.50
2022-10-19T03:26:40.791Z,961.55
2022-10-19T03:27:40.798Z,961.53
2022-10-19T03:28:40.828Z,961.51
2022-10-19T03:29:40.775Z,961.50
2022-10-19T03:30:40.747Z,961.53
2022-10-19T03:31:40.716Z,961.55
2022-10-19T03:32:40.697Z,961.55
2022-10-19T03:33:40.699Z,961.54
2022-10-19T03:34:40.700Z,961.51
2022-10-19T03:35:40.689Z,961.53
2022-10-19T03:36:40.654Z,961.56
2022-10-19T03:37:40.642Z,961.53
2022-10-19T03:38:40.624Z,961.50
2022-10-19T03:39:40.602Z,961.52
2022-10-19T03:40:40.617Z,961.54
2022-10-19T03:41:40.573Z,961.52
2022-10-19T03:42:40.601Z,961.49
2022-10-19T03:43:40.554Z,961.55
2022-10-19T03:44:40.543Z,961.52
2022-10-19T03:45:40.553Z,961.51
2022-10-19T03:46:40.529Z,961.54
2022-10-19T03:47:40.503Z,961.53
2022-10-19T03:48:40.488Z,961.52
2022-10-19T03:49:40.542Z,961.53
2022-10-19T03:50:40.498Z,961.51
2022-10-19T03:51:40.443Z,961.52
2022-10-19T03:52:40.439Z,961.49
2022-10-19T03:53:40.418Z,961.48
2022-10-19T03:54:40.459Z,961.50
2022-10-19T03:55:40.389Z,961.44
2022-10-19T03:56:40.406Z,961.48
2022-10-19T03:57:40.426Z,961.45
2022-10-19T03:58:40.358Z,961.52
2022-10-19T03:59:40.360Z,961.48
2022-10-19T04:00:40.402Z,961.52
2022-10-19T04:01:40.350Z,961.49
2022-10-19T04:02:40.323Z,961.48
2022-10-19T04:03:40.335Z,961.52
2022-10-19T04:04:40.299Z,961.54
2022-10-19T04:05:40.262Z,961.52
2022-10-19T04:06:40.253Z,961.52
2022-10-19T04:07:40.322Z,961.52
2022-10-19T04:08:40.252Z,961.54
2022-10-19T04:09:40.257Z,961.55
2022-10-19T04:10:40.206Z,961.53
2022-10-19T04:11:40.185Z,961.53
2022-10-19T04:12:40.173Z,961.53
2022-10-19T04:13:40.148Z,961.52
2022-10-19T04:14:56.288Z,961.50
2022-10-19T04:15:40.128Z,961.51
2022-10-19T04:16:40.123Z,961.50
2022-10-19T04:17:40.101Z,961.49
2022-10-19T04:18:40.085Z,961.47
2022-10-19T04:19:40.101Z,961.47
2022-10-19T04:20:40.065Z,961.47
2022-10-19T04:21:40.051Z,961.46
2022-10-19T04:22:40.044Z,961.46
2022-10-19T04:23:40.031Z,961.45
2022-10-19T04:24:40.045Z,961.46
2022-10-19T04:25:40.021Z,961.47
2022-10-19T04:26:39.993Z,961.47
2022-10-19T04:27:39.964Z,961.45
2022-10-19T04:28:40.026Z,961.45
2022-10-19T04:29:39.947Z,961.47
2022-10-19T04:30:39.966Z,961.47
2022-10-19T04:31:39.937Z,961.45
2022-10-19T04:32:39.910Z,961.46
2022-10-19T04:33:39.983Z,961.43
2022-10-19T04:34:40.189Z,961.42
2022-10-19T04:35:39.891Z,961.43
2022-10-19T04:36:39.881Z,961.41
2022-10-19T04:37:39.837Z,961.41
2022-10-19T04:38:39.828Z,961.38
2022-10-19T04:39:39.813Z,961.38
2022-10-19T04:40:39.832Z,961.40
2022-10-19T04:41:39.787Z,961.35
2022-10-19T04:42:39.767Z,961.31
2022-10-19T04:43:39.779Z,961.33
2022-10-19T04:44:39.748Z,961.34
2022-10-19T04:45:39.773Z,961.32
2022-10-19T04:46:39.721Z,961.28
2022-10-19T04:47:39.699Z,961.30
2022-10-19T04:48:39.729Z,961.29
2022-10-19T04:49:39.676Z,961.31
2022-10-19T04:50:39.665Z,961.31
2022-10-19T04:51:39.690Z,961.29
2022-10-19T04:52:39.650Z,961.29
2022-10-19T04:53:39.643Z,961.25
2022-10-19T04:54:39.674Z,961.26
2022-10-19T04:55:39.623Z,961.24
2022-10-19T04:56:39.581Z,961.24
2022-10-19T04:57:39.571Z,961.26
2022-10-19T04:58:39.564Z,961.23
2022-10-19T04:59:39.575Z,961.29
2022-10-19T05:00:39.586Z,961.26
2022-10-19T05:01:43.307Z,961.28
2022-10-19T05:02:39.540Z,961.34
2022-10-19T05:03:39.488Z,961.26
2022-10-19T05:04:41.819Z,961.32
2022-10-19T05:05:39.468Z,961.33
2022-10-19T05:06:39.498Z,961.30
2022-10-19T05:07:39.462Z,961.33
2022-10-19T05:08:39.429Z,961.25
2022-10-19T05:09:39.409Z,961.29
2022-10-19T05:10:41.218Z,961.26
2022-10-19T05:11:39.423Z,961.27
2022-10-19T05:12:39.413Z,961.22
2022-10-19T05:13:39.376Z,961.23
2022-10-19T05:14:42.643Z,961.21
2022-10-19T05:15:39.363Z,961.23
2022-10-19T05:16:39.325Z,961.21
2022-10-19T05:17:39.302Z,961.20
2022-10-19T05:18:39.314Z,961.18
2022-10-19T05:19:39.285Z,961.19
2022-10-19T05:20:39.266Z,961.21
2022-10-19T05:21:39.257Z,961.18
2022-10-19T05:22:39.266Z,961.13
2022-10-19T05:23:39.233Z,961.17
2022-10-19T05:24:39.248Z,961.16
2022-10-19T05:25:39.212Z,961.17
2022-10-19T05:26:39.197Z,961.14
2022-10-19T05:27:39.167Z,961.16
2022-10-19T05:28:39.249Z,961.14
2022-10-19T05:29:39.195Z,961.12
2022-10-19T05:30:39.151Z,961.13
2022-10-19T05:31:39.137Z,961.08
2022-10-19T05:32:39.113Z,961.09
2022-10-19T05:33:39.081Z,961.05
2022-10-19T05:34:39.083Z,961.05
2022-10-19T05:35:39.081Z,961.07
2022-10-19T05:36:39.084Z,961.04
2022-10-19T05:37:39.036Z,961.03
2022-10-19T05:38:39.047Z,961.00
2022-10-19T05:39:39.004Z,961.01
2022-10-19T05:40:39.047Z,960.98
2022-10-19T05:41:39.008Z,960.98
2022-10-19T05:42:38.975Z,960.95
2022-10-19T05:43:38.954Z,960.99
2022-10-19T05:45:38.945Z,960.96
2022-10-19T05:46:38.982Z,960.94
2022-10-19T05:47:38.903Z,960.95
2022-10-19T05:48:38.927Z,960.98
2022-10-19T05:49:38.877Z,960.94
2022-10-19T05:50:38.867Z,960.95
2022-10-19T05:51:38.855Z,960.93
2022-10-19T05:52:38.838Z,960.97
2022-10-19T05:54:38.834Z,960.92
2022-10-19T05:55:38.806Z,960.95
2022-10-19T05:56:38.783Z,960.93
2022-10-19T05:57:38.776Z,960.88
2022-10-19T05:58:38.771Z,960.89
2022-10-19T05:59:38.789Z,960.89
2022-10-19T06:00:38.768Z,960.90
2022-10-19T06:01:38.821Z,960.92
2022-10-19T06:02:38.718Z,960.91
2022-10-19T06:03:38.709Z,960.95
2022-10-19T06:04:38.780Z,960.96
2022-10-19T06:05:38.674Z,960.95
2022-10-19T06:06:38.661Z,960.97
2022-10-19T06:07:38.673Z,960.98
2022-10-19T06:08:38.614Z,960.99
2022-10-19T06:09:38.663Z,960.97
2022-10-19T06:10:38.600Z,960.97
2022-10-19T06:11:38.609Z,961.01
2022-10-19T06:12:38.580Z,961.03
2022-10-19T06:13:38.584Z,961.02
2022-10-19T06:14:38.600Z,961.05
2022-10-19T06:15:38.635Z,960.99
2022-10-19T06:16:38.527Z,961.01
2022-10-19T06:17:38.515Z,961.00
2022-10-19T06:18:38.523Z,961.03
2022-10-19T06:19:38.479Z,961.01
2022-10-19T06:20:38.467Z,961.02
2022-10-19T06:21:40.678Z,961.04
2022-10-19T06:22:38.468Z,961.05
2022-10-19T06:23:38.505Z,961.05
2022-10-19T06:24:38.416Z,961.08
2022-10-19T06:25:38.404Z,961.12
2022-10-19T06:26:38.413Z,961.16
2022-10-19T06:27:38.752Z,961.15
2022-10-19T06:28:38.380Z,961.12
2022-10-19T06:29:38.354Z,961.13
2022-10-19T06:30:38.418Z,961.13
2022-10-19T06:31:38.369Z,961.13
2022-10-19T06:32:38.319Z,961.14
2022-10-19T06:33:38.314Z,961.14
2022-10-19T06:34:38.288Z,961.18
2022-10-19T06:35:38.285Z,961.16
2022-10-19T06:36:38.293Z,961.20
2022-10-19T06:37:38.240Z,961.18
2022-10-19T06:38:38.230Z,961.16
2022-10-19T06:39:38.211Z,961.13
2022-10-19T06:40:38.194Z,961.20
2022-10-19T06:41:38.221Z,961.22
2022-10-19T06:42:38.170Z,961.22
2022-10-19T06:43:38.169Z,961.24
2022-10-19T06:44:38.155Z,961.20
2022-10-19T06:45:38.158Z,961.22
2022-10-19T06:46:38.117Z,961.23
2022-10-19T06:47:38.669Z,961.23
2022-10-19T06:48:38.090Z,961.23
2022-10-19T06:49:38.090Z,961.22
2022-10-19T06:50:38.081Z,961.25
2022-10-19T06:51:38.098Z,961.28
2022-10-19T06:52:38.083Z,961.28
2022-10-19T06:53:38.034Z,961.27
2022-10-19T06:54:38.010Z,961.29
2022-10-19T06:55:38.008Z,961.29
2022-10-19T06:56:38.050Z,961.29
2022-10-19T06:57:38.117Z,961.32
2022-10-19T06:58:37.962Z,961.32
2022-10-19T06:59:37.943Z,961.33
2022-10-19T07:00:38.055Z,961.34
2022-10-19T07:01:37.928Z,961.31
2022-10-19T07:02:37.952Z,961.31
2022-10-19T07:03:37.895Z,961.33
2022-10-19T07:04:37.903Z,961.26
2022-10-19T07:05:37.868Z,961.33
2022-10-19T07:06:37.856Z,961.28
2022-10-19T07:07:38.220Z,961.29
2022-10-19T07:08:37.863Z,961.32
2022-10-19T07:09:37.857Z,961.31
2022-10-19T07:10:37.808Z,961.32
2022-10-19T07:11:39.539Z,961.34
2022-10-19T07:12:37.782Z,961.35
2022-10-19T07:13:37.770Z,961.37
2022-10-19T07:14:37.765Z,961.45
2022-10-19T07:15:37.747Z,961.47
2022-10-19T07:16:37.760Z,961.44
2022-10-19T07:17:37.714Z,961.46
2022-10-19T07:18:37.708Z,961.44
2022-10-19T07:19:37.678Z,961.45
2022-10-19T07:20:37.662Z,961.49
2022-10-19T07:21:37.686Z,961.50
2022-10-19T07:22:37.639Z,961.50
2022-10-19T07:23:37.623Z,961.55
2022-10-19T07:24:37.608Z,961.52
2022-10-19T07:25:37.606Z,961.57
2022-10-19T07:26:37.630Z,961.53
2022-10-19T07:27:37.931Z,961.57
2022-10-19T07:28:37.568Z,961.56
2022-10-19T07:29:37.539Z,961.59
2022-10-19T07:30:37.527Z,961.58
2022-10-19T07:31:37.555Z,961.58
2022-10-19T07:32:37.499Z,961.59
2022-10-19T07:33:37.576Z,961.59
2022-10-19T07:34:37.479Z,961.57
2022-10-19T07:35:37.466Z,961.58
2022-10-19T07:36:37.473Z,961.61
2022-10-19T07:37:37.441Z,961.60
2022-10-19T07:38:37.436Z,961.59
2022-10-19T07:39:37.413Z,961.60
2022-10-19T07:40:37.387Z,961.59
2022-10-19T07:41:37.421Z,961.55
2022-10-19T07:42:37.369Z,961.54
2022-10-19T07:43:37.383Z,961.57
2022-10-19T07:44:37.342Z,961.60
2022-10-19T07:45:37.334Z,961.61
2022-10-19T07:46:37.458Z,961.61
2022-10-19T07:47:37.310Z,961.65
2022-10-19T07:48:37.293Z,961.59
2022-10-19T07:49:37.279Z,961.66
2022-10-19T07:50:37.259Z,961.63
2022-10-19T07:51:37.284Z,961.66
2022-10-19T07:52:37.303Z,961.66
2022-10-19T07:53:37.226Z,961.63
2022-10-19T07:54:37.212Z,961.64
2022-10-19T07:55:37.188Z,961.60
2022-10-19T07:56:37.205Z,961.58
2022-10-19T07:57:37.202Z,961.57
2022-10-19T07:58:37.178Z,961.60
2022-10-19T07:59:37.162Z,961.57
2022-10-19T08:00:37.197Z,961.58
2022-10-19T08:01:37.205Z,961.55
2022-10-19T08:02:54.655Z,961.57
2022-10-19T08:05:37.070Z,961.60
2022-10-19T08:06:37.057Z,961.53
2022-10-19T08:07:37.043Z,961.56
2022-10-19T08:08:37.056Z,961.55
2022-10-19T08:09:53.877Z,961.54
2022-10-19T08:10:36.999Z,961.52
2022-10-19T08:11:36.987Z,961.52
2022-10-19T08:12:36.985Z,961.50
2022-10-19T08:13:36.955Z,961.52
2022-10-19T08:14:36.988Z,961.51
2022-10-19T08:15:36.958Z,961.50
2022-10-19T08:16:36.929Z,961.50
2022-10-19T08:17:36.908Z,961.51
2022-10-19T08:18:36.887Z,961.52
2022-10-19T08:19:36.882Z,961.52
2022-10-19T08:20:36.880Z,961.52
2022-10-19T08:21:36.842Z,961.53
2022-10-19T08:22:37.019Z,961.52
2022-10-19T08:23:36.815Z,961.53
2022-10-19T08:24:36.851Z,961.48
2022-10-19T08:25:36.794Z,961.52
2022-10-19T08:26:36.769Z,961.57
2022-10-19T08:28:36.866Z,961.49
2022-10-19T08:29:36.779Z,961.50
2022-10-19T08:30:36.721Z,961.51
2022-10-19T08:31:36.739Z,961.50
2022-10-19T08:32:37.053Z,961.55
2022-10-19T08:33:36.838Z,961.54
2022-10-19T08:34:36.674Z,961.54
2022-10-19T08:35:36.655Z,961.51
2022-10-19T08:36:36.690Z,961.49
2022-10-19T08:37:44.789Z,961.49
2022-10-19T08:38:36.653Z,961.44
2022-10-19T08:39:36.615Z,961.45
2022-10-19T08:40:36.610Z,961.40
2022-10-19T08:41:36.613Z,961.37
2022-10-19T08:42:36.864Z,961.37
2022-10-19T08:43:36.548Z,961.35
2022-10-19T08:44:36.579Z,961.36
2022-10-19T08:45:36.574Z,961.40
2022-10-19T08:46:36.531Z,961.35
2022-10-19T08:47:36.815Z,961.37
2022-10-19T08:48:36.502Z,961.34
2022-10-19T08:49:36.476Z,961.36
2022-10-19T08:50:36.454Z,961.39
2022-10-19T08:51:36.443Z,961.37
2022-10-19T08:52:36.463Z,961.35
2022-10-19T08:53:36.420Z,961.35
2022-10-19T08:54:36.481Z,961.36
2022-10-19T08:55:36.415Z,961.35
2022-10-19T08:56:50.484Z,961.33
2022-10-19T08:57:36.731Z,961.36
2022-10-19T08:58:36.345Z,961.31
2022-10-19T08:59:36.469Z,961.34
2022-10-19T09:00:36.440Z,961.30
2022-10-19T09:01:37.740Z,961.31
2022-10-19T09:02:36.669Z,961.35
2022-10-19T09:03:55.302Z,961.29
2022-10-19T09:04:36.270Z,961.30
2022-10-19T09:05:36.284Z,961.32
2022-10-19T09:06:36.240Z,961.31
2022-10-19T09:07:36.223Z,961.35
2022-10-19T09:08:36.234Z,961.32
2022-10-19T09:09:36.287Z,961.34
2022-10-19T09:10:36.205Z,961.35
2022-10-19T09:11:36.176Z,961.32
2022-10-19T09:12:36.460Z,961.36
2022-10-19T09:13:41.671Z,961.34
2022-10-19T09:14:36.168Z,961.32
2022-10-19T09:15:36.171Z,961.33
2022-10-19T09:16:36.107Z,961.29
2022-10-19T09:17:36.108Z,961.33
2022-10-19T09:18:36.079Z,961.32
2022-10-19T09:19:36.163Z,961.31
2022-10-19T09:20:36.055Z,961.30
2022-10-19T09:21:45.992Z,961.29
2022-10-19T09:22:36.395Z,961.28
2022-10-19T09:23:36.009Z,961.26
2022-10-19T09:24:36.030Z,961.26
2022-10-19T09:25:35.998Z,961.27
2022-10-19T09:26:35.981Z,961.22
2022-10-19T09:27:35.999Z,961.27
2022-10-19T09:28:39.679Z,961.24
2022-10-19T09:29:36.054Z,961.21
2022-10-19T09:30:35.955Z,961.23
2022-10-19T09:31:40.351Z,961.26
2022-10-19T09:32:36.425Z,961.24
2022-10-19T09:33:35.880Z,961.24
2022-10-19T09:34:35.915Z,961.24
2022-10-19T09:35:35.858Z,961.24
2022-10-19T09:36:50.204Z,961.23
2022-10-19T09:37:35.838Z,961.23
2022-10-19T09:38:35.803Z,961.25
2022-10-19T09:39:35.798Z,961.22
2022-10-19T09:40:35.806Z,961.25
2022-10-19T09:41:35.783Z,961.21
2022-10-19T09:42:36.036Z,961.24
2022-10-19T09:43:35.798Z,961.25
2022-10-19T09:44:35.736Z,961.25
2022-10-19T09:45:35.728Z,961.27
2022-10-19T09:46:38.676Z,961.31
2022-10-19T09:47:36.092Z,961.29
2022-10-19T09:48:35.682Z,961.31
2022-10-19T09:49:35.694Z,961.29
2022-10-19T09:50:35.651Z,961.31
2022-10-19T09:51:35.641Z,961.30
2022-10-19T09:52:35.620Z,961.31
2022-10-19T09:53:35.627Z,961.33
2022-10-19T09:54:35.684Z,961.35
2022-10-19T09:55:35.624Z,961.32
2022-10-19T09:56:35.583Z,961.34
2022-10-19T09:57:35.802Z,961.32
2022-10-19T09:58:35.555Z,961.33
2022-10-19T09:59:35.570Z,961.29
2022-10-19T10:00:35.511Z,961.28
2022-10-19T10:01:41.691Z,961.29
2022-10-19T10:02:35.882Z,961.30
2022-10-19T10:03:35.484Z,961.31
2022-10-19T10:04:35.495Z,961.28
2022-10-19T10:05:35.468Z,961.27
2022-10-19T10:06:35.438Z,961.32
2022-10-19T10:07:35.734Z,961.30
2022-10-19T10:08:35.473Z,961.29
2022-10-19T10:09:35.459Z,961.29
2022-10-19T10:10:35.421Z,961.28
2022-10-19T10:11:35.397Z,961.33
2022-10-19T10:12:35.701Z,961.33
2022-10-19T10:13:35.372Z,961.32
2022-10-19T10:14:35.329Z,961.34
2022-10-19T10:15:35.313Z,961.36
2022-10-19T10:16:35.306Z,961.37
2022-10-19T10:17:35.288Z,961.35
2022-10-19T10:18:35.310Z,961.35
2022-10-19T10:19:35.289Z,961.33
2022-10-19T10:20:35.333Z,961.35
2022-10-19T10:21:35.237Z,961.37
2022-10-19T10:22:35.528Z,961.41
2022-10-19T10:23:35.244Z,961.40
2022-10-19T10:24:35.202Z,961.36
2022-10-19T10:25:35.179Z,961.37
2022-10-19T10:27:35.530Z,961.41
2022-10-19T10:28:35.172Z,961.38
2022-10-19T10:29:35.130Z,961.42
2022-10-19T10:30:35.119Z,961.38
2022-10-19T10:31:35.101Z,961.38
2022-10-19T10:32:35.465Z,961.36
2022-10-19T10:33:46.493Z,961.39
2022-10-19T10:34:49.506Z,961.37
2022-10-19T10:35:35.060Z,961.36
2022-10-19T10:36:35.079Z,961.38
2022-10-19T10:37:35.424Z,961.34
2022-10-19T10:38:35.013Z,961.33
2022-10-19T10:39:35.024Z,961.33
2022-10-19T10:40:34.988Z,961.34
2022-10-19T10:41:34.975Z,961.31
2022-10-19T10:42:35.284Z,961.29
2022-10-19T10:43:34.947Z,961.28
2022-10-19T10:44:34.939Z,961.28
2022-10-19T10:45:34.922Z,961.23
2022-10-19T10:46:34.937Z,961.24
2022-10-19T10:47:35.322Z,961.20
2022-10-19T10:48:34.881Z,961.15
2022-10-19T10:49:34.894Z,961.20
2022-10-19T10:50:34.852Z,961.16
2022-10-19T10:51:34.857Z,961.15
2022-10-19T10:52:35.105Z,961.10
2022-10-19T10:53:34.857Z,961.12
2022-10-19T10:54:34.803Z,961.09
2022-10-19T10:55:34.789Z,961.08
2022-10-19T10:56:34.781Z,961.07
2022-10-19T10:57:34.757Z,961.06
2022-10-19T10:58:34.770Z,961.06
2022-10-19T10:59:34.739Z,961.06
2022-10-19T11:00:34.743Z,961.02
2022-10-19T11:01:34.738Z,960.99
2022-10-19T11:02:34.738Z,961.01
2022-10-19T11:03:34.683Z,960.98
2022-10-19T11:04:34.695Z,961.01
2022-10-19T11:05:34.651Z,960.95
2022-10-19T11:06:34.640Z,960.92
2022-10-19T11:07:34.892Z,960.92
2022-10-19T11:08:34.655Z,960.93
2022-10-19T11:09:34.594Z,960.93
2022-10-19T11:10:34.602Z,960.93
2022-10-19T11:11:34.562Z,960.90
2022-10-19T11:12:35.240Z,960.88
2022-10-19T11:13:34.548Z,960.86
2022-10-19T11:14:34.563Z,960.84
2022-10-19T11:15:34.514Z,960.87
2022-10-19T11:16:34.504Z,960.85
2022-10-19T11:17:34.779Z,960.78
2022-10-19T11:18:34.480Z,960.78
2022-10-19T11:19:34.502Z,960.76
2022-10-19T11:20:34.465Z,960.79
2022-10-19T11:21:34.437Z,960.81
2022-10-19T11:22:34.779Z,960.74
2022-10-19T11:23:34.410Z,960.76
2022-10-19T11:24:34.417Z,960.73
2022-10-19T11:25:34.442Z,960.68
2022-10-19T11:26:34.378Z,960.71
2022-10-19T11:27:34.735Z,960.70
2022-10-19T11:28:34.370Z,960.70
2022-10-19T11:29:34.320Z,960.65
2022-10-19T11:30:35.538Z,960.65
2022-10-19T11:31:34.313Z,960.60
2022-10-19T11:32:34.650Z,960.57
2022-10-19T11:33:34.361Z,960.59
2022-10-19T11:34:34.286Z,960.62
2022-10-19T11:35:34.245Z,960.62
2022-10-19T11:36:34.235Z,960.55
2022-10-19T11:37:34.526Z,960.57
2022-10-19T11:38:34.211Z,960.53
2022-10-19T11:39:34.218Z,960.51
2022-10-19T11:40:34.192Z,960.55
2022-10-19T11:41:34.193Z,960.52
2022-10-19T11:42:34.199Z,960.54
2022-10-19T11:43:34.149Z,960.51
2022-10-19T11:44:34.134Z,960.49
2022-10-19T11:45:34.117Z,960.48
2022-10-19T11:46:34.111Z,960.45
2022-10-19T11:47:34.538Z,960.41
2022-10-19T11:48:34.087Z,960.45
2022-10-19T11:49:34.189Z,960.38
2022-10-19T11:50:34.058Z,960.37
2022-10-19T11:51:34.121Z,960.34
2022-10-19T11:52:34.333Z,960.31
2022-10-19T11:53:34.032Z,960.32
2022-10-19T11:54:34.029Z,960.32
2022-10-19T11:55:34.026Z,960.30
2022-10-19T11:56:44.646Z,960.27
2022-10-19T11:57:34.311Z,960.28
2022-10-19T11:58:35.205Z,960.33
2022-10-19T11:59:33.957Z,960.30
2022-10-19T12:00:39.341Z,960.30
2022-10-19T12:01:33.911Z,960.29
2022-10-19T12:02:34.302Z,960.26
2022-10-19T12:03:33.877Z,960.26
2022-10-19T12:04:33.863Z,960.23
2022-10-19T12:05:33.891Z,960.17
2022-10-19T12:06:33.840Z,960.20
2022-10-19T12:07:33.854Z,960.17
2022-10-19T12:08:33.884Z,960.15
2022-10-19T12:09:33.800Z,960.14
2022-10-19T12:10:33.798Z,960.11
2022-10-19T12:11:33.777Z,960.14
2022-10-19T12:12:34.120Z,960.10
2022-10-19T12:13:33.787Z,960.05
2022-10-19T12:14:33.735Z,960.06
2022-10-19T12:15:33.734Z,960.06
2022-10-19T12:16:33.710Z,960.05
2022-10-19T12:17:34.252Z,960.05
2022-10-19T12:18:33.694Z,960.04
2022-10-19T12:19:33.682Z,960.08
2022-10-19T12:20:33.663Z,960.07
2022-10-19T12:21:33.639Z,960.03
2022-10-19T12:22:33.652Z,960.02
2022-10-19T12:23:33.622Z,960.03
2022-10-19T12:24:33.619Z,960.05
2022-10-19T12:25:33.594Z,960.02
2022-10-19T12:26:33.603Z,960.07
2022-10-19T12:27:33.851Z,960.07
2022-10-19T12:28:33.584Z,960.11
2022-10-19T12:29:33.549Z,960.09
2022-10-19T12:30:33.539Z,960.09
2022-10-19T12:31:33.522Z,960.11
2022-10-19T12:32:33.542Z,960.07
2022-10-19T12:33:33.520Z,960.01
2022-10-19T12:34:33.507Z,960.05
2022-10-19T12:35:33.464Z,960.04
2022-10-19T12:36:33.452Z,960.02